Latest Weather Observations for Portland Harbour

IDV60801

Issued at 8:32 pm EDT Friday 20 January 2017 (issued every 30 minutes, with the page automatically refreshed every 10 minutes)

About weather observations | Map of weather stations | Latest weather observations for VIC | Other Formats
Station Details ID: 090192 Name: PORTLAND NTC AWS Lat: -38.34 Lon: 141.61 Height: 0.0 m
Data from the previous 72 hours. | See also: Recent months for locations in Victoria
Date/Time
EDT
Temp
°C
App
Temp
°C
Dew
Point
°C
Rel
Hum
%
Delta-T
°C
Wind Press
QNH
hPa
Press
MSL
hPa
Rain since
9am
mm
Dir  Spd
km/h
Gust
km/h
Spd
kts
Gust
kts
20/08:30pm 15.9 - - - - S 15 20 8 11 1010.0 1010.0 -
20/08:00pm 16.2 - - - - SSW 19 26 10 14 1009.8 1009.8 -
20/07:30pm 16.1 - - - - S 20 28 11 15 1009.5 1009.5 -
20/07:00pm 16.4 - - - - SSW 22 30 12 16 1009.0 1009.0 -
20/06:30pm 16.4 - - - - S 22 32 12 17 1008.7 1008.7 -
20/06:00pm 15.9 - - - - S 30 39 16 21 1008.4 1008.4 -
20/05:30pm 16.2 - - - - SSW 30 41 16 22 1008.3 1008.3 -
20/05:00pm 16.4 - - - - SSW 32 39 17 21 1008.0 1008.0 -
20/04:30pm 16.2 - - - - S 30 39 16 21 1007.7 1007.7 -
20/04:00pm 16.2 - - - - SSW 30 43 16 23 1007.5 1007.5 -
20/03:30pm 16.4 - - - - SSW 28 39 15 21 1007.1 1007.1 -
20/03:00pm 16.4 - - - - SSW 32 41 17 22 1006.7 1006.7 -
20/02:30pm 16.3 - - - - SSW 30 39 16 21 1006.2 1006.2 -
20/02:00pm 16.4 - - - - SSW 30 39 16 21 1005.8 1005.8 -
20/01:30pm 16.4 - - - - SSW 33 46 18 25 1005.6 1005.6 -
20/01:00pm 16.7 - - - - SSW 35 48 19 26 1005.2 1005.2 -
20/12:30pm 16.2 - - - - SSW 35 50 19 27 1004.7 1004.7 -
20/12:00pm 16.6 - - - - SSW 37 46 20 25 1004.2 1004.2 -
20/11:46am 16.5 - - - - SSW 33 54 18 29 1004.0 1004.0 -
20/11:30am 16.2 - - - - SSW 37 50 20 27 1003.8 1003.8 -
20/11:00am 16.4 - - - - SSW 37 52 20 28 1003.4 1003.4 -
20/10:30am 15.8 - - - - SSW 33 46 18 25 1002.8 1002.8 -
20/10:00am 15.8 - - - - SSW 30 41 16 22 1001.9 1001.9 -
20/09:30am 15.4 - - - - SSW 28 35 15 19 1001.2 1001.2 -
20/09:00am 14.9 - - - - S 32 44 17 24 1000.5 1000.5 -
20/08:30am 14.9 - - - - S 32 48 17 26 1000.2 1000.2 -
20/08:00am 15.0 - - - - S 32 41 17 22 999.4 999.4 -
20/07:30am 14.9 - - - - S 35 48 19 26 998.6 998.6 -
20/07:00am 14.8 - - - - S 35 50 19 27 998.0 998.0 -
20/06:30am 14.8 - - - - S 39 59 21 32 997.2 997.2 -
20/06:00am 15.2 - - - - SSW 44 57 24 31 996.7 996.7 -
20/05:49am 15.6 - - - - SSW 30 57 16 31 996.4 996.4 -
20/05:30am 15.8 - - - - SSW 24 35 13 19 996.1 996.1 -
20/05:00am 15.8 - - - - SW 9 15 5 8 995.1 995.1 -
20/04:30am 15.9 - - - - NNE 13 24 7 13 994.3 994.3 -
20/04:00am 16.0 - - - - NE 24 28 13 15 993.8 993.8 -
20/03:30am 15.9 - - - - ENE 30 39 16 21 994.5 994.5 -
20/03:00am 15.7 - - - - ENE 35 41 19 22 995.3 995.3 -
20/02:30am 15.8 - - - - ENE 46 56 25 30 995.2 995.2 -
20/02:00am 16.3 - - - - E 39 52 21 28 996.0 996.0 -
20/01:58am 16.0 - - - - E 35 48 19 26 996.5 996.5 -
20/01:51am 16.4 - - - - ESE 26 35 14 19 998.5 998.5 -
20/01:30am 16.0 - - - - SE 26 32 14 17 1000.6 1000.6 -
20/01:17am 16.0 - - - - SE 20 28 11 15 1001.3 1001.3 -
20/01:00am 15.7 - - - - S 22 28 12 15 1003.3 1003.3 -
20/12:30am 16.5 - - - - S 17 24 9 13 1003.7 1003.7 -
20/12:00am 16.8 - - - - SSW 22 30 12 16 1004.4 1004.4 -
 
Date/Time
EDT
Temp
°C
App
Temp
°C
Dew
Point
°C
Rel
Hum
%
Delta-T
°C
Wind Press
QNH
hPa
Press
MSL
hPa
Rain since
9am
mm
Dir  Spd
km/h
Gust
km/h
Spd
kts
Gust
kts
19/11:30pm 17.3 - - - - SW 17 20 9 11 1003.7 1003.7 -
19/11:09pm 17.9 - - - - SSW 17 22 9 12 1002.3 1002.3 -
19/11:00pm 17.9 - - - - SE 24 33 13 18 1000.3 1000.3 -
19/10:30pm 17.7 - - - - ESE 28 33 15 18 998.6 998.6 -
19/10:00pm 17.4 - - - - ESE 30 37 16 20 999.6 999.6 -
19/09:30pm 17.4 - - - - SE 28 35 15 19 1001.2 1001.2 -
19/09:00pm 17.3 - - - - SE 24 33 13 18 1002.2 1002.2 -
19/08:30pm 17.1 - - - - ESE 22 32 12 17 1002.8 1002.8 -
19/08:00pm 16.9 - - - - E 24 32 13 17 1002.9 1002.9 -
19/07:30pm 16.6 - - - - ESE 24 33 13 18 1003.2 1003.2 -
19/07:00pm 16.7 - - - - ESE 22 32 12 17 1004.1 1004.1 -
19/06:30pm 16.5 - - - - ESE 24 32 13 17 1004.9 1004.9 -
19/06:00pm 16.6 - - - - ESE 26 33 14 18 1005.3 1005.3 -
19/05:30pm 16.6 - - - - SE 26 32 14 17 1006.5 1006.5 -
19/05:00pm 16.6 - - - - SE 24 32 13 17 1007.5 1007.5 -
19/04:30pm 17.0 - - - - SE 28 35 15 19 1007.8 1007.8 -
19/04:00pm 16.4 - - - - ESE 26 32 14 17 1008.1 1008.1 -
19/03:30pm 16.5 - - - - ESE 30 35 16 19 1008.5 1008.5 -
19/03:00pm 16.7 - - - - ESE 30 35 16 19 1008.9 1008.9 -
19/02:30pm 16.6 - - - - ESE 32 37 17 20 1009.5 1009.5 -
19/02:00pm 16.4 - - - - ESE 32 37 17 20 1010.2 1010.2 -
19/01:30pm 16.4 - - - - ESE 30 35 16 19 1011.1 1011.1 -
19/01:00pm 16.2 - - - - ESE 28 33 15 18 1011.7 1011.7 -
19/12:30pm 16.4 - - - - ESE 24 33 13 18 1012.3 1012.3 -
19/12:00pm 16.3 - - - - E 26 32 14 17 1012.7 1012.7 -
19/11:30am 15.6 - - - - E 26 32 14 17 1013.1 1013.1 -
19/11:00am 15.6 - - - - E 26 35 14 19 1013.3 1013.3 -
19/10:30am 15.5 - - - - E 24 33 13 18 1013.7 1013.7 -
19/10:00am 14.6 - - - - E 28 33 15 18 1013.9 1013.9 -
19/09:30am 14.5 - - - - ENE 26 32 14 17 1014.3 1014.3 -
19/09:00am 14.3 - - - - ENE 28 33 15 18 1014.5 1014.5 -
19/08:30am 14.5 - - - - ENE 24 32 13 17 1014.7 1014.7 -
19/08:00am 14.4 - - - - ENE 24 30 13 16 1014.6 1014.6 -
19/07:30am 14.7 - - - - E 24 33 13 18 1014.6 1014.6 -
19/07:00am 15.0 - - - - E 26 35 14 19 1014.6 1014.6 -
19/06:30am 15.0 - - - - E 28 37 15 20 1014.7 1014.7 -
19/06:00am 15.0 - - - - ESE 28 35 15 19 1014.8 1014.8 -
19/05:30am 15.0 - - - - ESE 26 33 14 18 1014.9 1014.9 -
19/05:00am 15.1 - - - - E 24 33 13 18 1014.9 1014.9 -
19/04:30am 15.0 - - - - ESE 22 33 12 18 1015.0 1015.0 -
19/04:00am 15.1 - - - - ESE 22 32 12 17 1015.1 1015.1 -
19/03:30am 15.2 - - - - ESE 26 35 14 19 1015.5 1015.5 -
19/03:00am 15.3 - - - - ESE 26 35 14 19 1015.6 1015.6 -
19/02:30am 15.2 - - - - ESE 26 33 14 18 1016.0 1016.0 -
19/02:00am 15.7 - - - - ESE 28 35 15 19 1016.3 1016.3 -
19/01:30am 15.3 - - - - ESE 26 39 14 21 1016.6 1016.6 -
19/01:00am 15.7 - - - - ESE 26 39 14 21 1017.0 1017.0 -
19/12:30am 15.7 - - - - ESE 28 37 15 20 1017.2 1017.2 -
19/12:00am 16.0 - - - - SE 32 41 17 22 1017.4 1017.4 -
 
Date/Time
EDT
Temp
°C
App
Temp
°C
Dew
Point
°C
Rel
Hum
%
Delta-T
°C
Wind Press
QNH
hPa
Press
MSL
hPa
Rain since
9am
mm
Dir  Spd
km/h
Gust
km/h
Spd
kts
Gust
kts
18/11:30pm 16.0 - - - - ESE 32 37 17 20 1017.7 1017.7 -
18/11:00pm 15.9 - - - - ESE 26 33 14 18 1017.6 1017.6 -
18/10:30pm 15.9 - - - - ESE 26 37 14 20 1017.7 1017.7 -
18/10:00pm 16.1 - - - - SE 28 35 15 19 1017.5 1017.5 -
18/09:30pm 16.0 - - - - SE 26 33 14 18 1017.6 1017.6 -
18/09:00pm 16.2 - - - - SE 28 39 15 21 1017.6 1017.6 -
18/08:30pm 16.0 - - - - SE 28 35 15 19 1017.7 1017.7 -
18/08:00pm 16.2 - - - - SE 28 35 15 19 1017.6 1017.6 -
18/07:30pm 16.1 - - - - SE 24 33 13 18 1017.5 1017.5 -
18/07:00pm 16.5 - - - - SE 24 33 13 18 1017.4 1017.4 -
18/06:30pm 16.6 - - - - SE 24 30 13 16 1017.3 1017.3 -
18/06:00pm 16.6 - - - - SE 24 30 13 16 1017.3 1017.3 -
18/05:30pm 16.7 - - - - SE 22 30 12 16 1017.3 1017.3 -
18/05:00pm 16.7 - - - - SE 22 30 12 16 1017.5 1017.5 -
18/04:30pm 16.4 - - - - SE 24 32 13 17 1017.5 1017.5 -
18/04:00pm 16.8 - - - - SE 26 37 14 20 1017.4 1017.4 -
18/03:30pm 16.7 - - - - SE 24 33 13 18 1017.6 1017.6 -
18/03:00pm 16.8 - - - - SSE 20 33 11 18 1017.6 1017.6 -
18/02:30pm 16.0 - - - - SSE 22 32 12 17 1017.6 1017.6 -
18/02:00pm 16.3 - - - - SSE 20 30 11 16 1017.7 1017.7 -
18/01:30pm 16.6 - - - - SSE 20 30 11 16 1017.7 1017.7 -
18/01:00pm 16.4 - - - - SSE 19 33 10 18 1017.7 1017.7 -
18/12:30pm 16.5 - - - - S 22 33 12 18 1017.4 1017.4 -
18/12:00pm 16.6 - - - - SSE 20 32 11 17 1017.3 1017.3 -
18/11:30am 16.9 - - - - SSW 22 32 12 17 1017.2 1017.2 -
18/11:00am 16.6 - - - - S 28 35 15 19 1017.0 1017.0 -
18/10:30am 16.7 - - - - S 26 37 14 20 1016.7 1016.7 -
18/10:00am 16.4 - - - - S 28 33 15 18 1016.4 1016.4 -
18/09:30am 16.3 - - - - S 26 35 14 19 1016.0 1016.0 -
18/09:00am 16.6 - - - - S 24 33 13 18 1015.7 1015.7 -
18/08:30am 16.3 - - - - S 22 32 12 17 1015.2 1015.2 -
18/08:00am 16.2 - - - - S 24 33 13 18 1014.7 1014.7 -
18/07:30am 16.3 - - - - S 24 35 13 19 1014.2 1014.2 -
18/07:00am 15.8 - - - - S 19 32 10 17 1013.8 1013.8 -
18/06:30am 15.8 - - - - SSW 17 26 9 14 1013.4 1013.4 -
18/06:00am 15.8 - - - - S 19 26 10 14 1012.9 1012.9 -
18/05:30am 16.0 - - - - S 24 37 13 20 1012.4 1012.4 -
18/05:00am 16.0 - - - - SSW 17 26 9 14 1011.7 1011.7 -
18/04:30am 15.9 - - - - S 19 28 10 15 1011.0 1011.0 -
18/04:00am 15.8 - - - - S 19 26 10 14 1011.0 1011.0 -
18/03:30am 14.2 - - - - WNW 9 15 5 8 1010.7 1010.7 -
18/03:00am 14.1 - - - - WNW 9 13 5 7 1010.8 1010.8 -
18/02:34am 14.1 - - - - WSW 7 17 4 9 1009.9 1009.9 -
18/02:30am 14.4 - - - - W 7 17 4 9 1011.9 1011.9 -
18/02:00am 14.4 - - - - WSW 7 13 4 7 1011.7 1011.7 -
18/01:30am 14.8 - - - - SW 17 22 9 12 1011.7 1011.7 -
18/01:00am 15.1 - - - - SSW 24 33 13 18 1011.9 1011.9 -
18/12:30am 16.1 - - - - SW 11 17 6 9 1011.9 1011.9 -
18/12:00am 16.3 - - - - SW 15 20 8 11 1011.5 1011.5 -
 
Date/Time
EDT
Temp
°C
App
Temp
°C
Dew
Point
°C
Rel
Hum
%
Delta-T
°C
Wind Press
QNH
hPa
Press
MSL
hPa
Rain since
9am
mm
Dir  Spd
km/h
Gust
km/h
Spd
kts
Gust
kts
17/11:30pm 16.5 - - - - SW 22 33 12 18 1011.7 1011.7 -
17/11:00pm 17.0 - - - - SW 17 20 9 11 1011.8 1011.8 -
17/10:30pm 17.1 - - - - SW 13 17 7 9 1011.7 1011.7 -
17/10:00pm 17.4 - - - - SW 22 32 12 17 1011.7 1011.7 -
17/09:30pm 17.7 - - - - SW 17 24 9 13 1011.2 1011.2 -
17/09:00pm 18.0 - - - - SW 11 17 6 9 1010.4 1010.4 -

Other Formats:

Comma delimited format used in spreadsheet applications
http://www.bom.gov.au/fwo/IDV60801/IDV60801.95826.axf

JavaScript Object Notation format (JSON) in row-major order
http://www.bom.gov.au/fwo/IDV60801/IDV60801.95826.json